Time;durP1;ratioP1;P1;durP2;ratioP2;P2;SDS_P1;SDS_P2;PMS_P1;PMS_P2;Temp;Humidity;BMP_temperature;BMP_pressure;BME280_temperature;BME280_humidity;BME280_pressure;Samples;Min_cycle;Max_cycle;Signal;HPM_P1;HPM_P2
2023/04/26 00:02:10;;;;;;;;;;;;;;;5.37;100.00;95845.75;5091256;28;19928;-71
2023/04/26 00:04:36;;;;;;;;;;;;;;;5.12;100.00;95844.22;5097551;28;19928;-71
2023/04/26 00:07:03;;;;;;;;;;;;;;;5.18;100.00;95838.81;5104951;28;19924;-71
2023/04/26 00:09:30;;;;;;;;;;;;;;;5.14;100.00;95844.97;5105634;28;20003;-71
2023/04/26 00:11:57;;;;;;;;;;;;;;;5.04;100.00;95844.50;5095692;28;19932;-71
2023/04/26 00:14:23;;;;;;;;;;;;;;;5.20;100.00;95846.47;5098020;28;19924;-71
2023/04/26 00:16:49;;;;;;;;;;;;;;;5.29;100.00;95841.78;5106705;28;19924;-71
2023/04/26 00:19:16;;;;;;;;;;;;;;;5.41;100.00;95847.28;5101087;28;19932;-71
2023/04/26 00:21:42;;;;;;;;;;;;;;;5.48;100.00;95841.84;5100730;28;19924;-71
2023/04/26 00:24:09;;;;;;;;;;;;;;;5.49;100.00;95846.09;5101569;28;19977;-71
2023/04/26 00:26:36;;;;;;;;;;;;;;;5.38;100.00;95843.16;5097208;28;19931;-71
2023/04/26 00:29:03;;;;;;;;;;;;;;;5.38;100.00;95840.56;5098716;28;19978;-71
2023/04/26 00:31:30;;;;;;;;;;;;;;;5.44;100.00;95842.88;5102802;28;19932;-71
2023/04/26 00:33:56;;;;;;;;;;;;;;;5.37;100.00;95846.59;5093744;28;19928;-71
2023/04/26 00:36:22;;;;;;;;;;;;;;;5.29;100.00;95843.50;5099733;28;20394;-71
2023/04/26 00:38:49;;;;;;;;;;;;;;;5.17;100.00;95844.84;5093672;28;19931;-71
2023/04/26 00:41:15;;;;;;;;;;;;;;;5.09;100.00;95842.59;5096685;28;19928;-71
2023/04/26 00:43:42;;;;;;;;;;;;;;;5.21;100.00;95843.00;5101801;28;20443;-71
2023/04/26 00:46:09;;;;;;;;;;;;;;;5.20;100.00;95842.16;5091551;28;19924;-71
2023/04/26 00:48:36;;;;;;;;;;;;;;;5.26;100.00;95838.50;5108417;28;20369;-71
2023/04/26 00:51:03;;;;;;;;;;;;;;;5.26;100.00;95843.63;5102851;28;20432;-71
2023/04/26 00:53:30;;;;;;;;;;;;;;;5.29;100.00;95840.94;5103432;28;19924;-71
2023/04/26 00:55:57;;;;;;;;;;;;;;;5.24;100.00;95840.31;5097928;28;20014;-71
2023/04/26 00:58:23;;;;;;;;;;;;;;;5.33;100.00;95839.91;5102070;28;19924;-71
2023/04/26 01:00:51;;;;;;;;;;;;;;;5.38;100.00;95843.16;5093918;28;19928;-71
2023/04/26 01:03:17;;;;;;;;;;;;;;;5.38;100.00;95844.84;5097759;28;19978;-71
2023/04/26 01:05:44;;;;;;;;;;;;;;;5.38;100.00;95842.28;5101384;28;19985;-71
2023/04/26 01:08:10;;;;;;;;;;;;;;;5.30;100.00;95845.16;5090389;28;19931;-71
2023/04/26 01:10:37;;;;;;;;;;;;;;;5.29;100.00;95843.50;5100284;28;19977;-71
2023/04/26 01:13:03;;;;;;;;;;;;;;;5.31;100.00;95844.28;5095690;28;19924;-71
2023/04/26 01:15:32;;;;;;;;;;;;;;;5.36;100.00;95839.78;5102526;28;19931;-71
2023/04/26 01:18:00;;;;;;;;;;;;;;;5.38;100.00;95838.00;5106268;28;20290;-72
2023/04/26 01:20:26;;;;;;;;;;;;;;;5.41;100.00;95837.03;5093285;28;20337;-70
2023/04/26 01:22:54;;;;;;;;;;;;;;;5.43;100.00;95832.69;5102373;28;20452;-71
2023/04/26 01:25:21;;;;;;;;;;;;;;;5.46;100.00;95830.81;5094183;28;20223;-71
2023/04/26 01:27:47;;;;;;;;;;;;;;;5.18;100.00;95837.97;5106807;28;20323;-70
2023/04/26 01:30:13;;;;;;;;;;;;;;;5.06;100.00;95839.31;5095146;28;20344;-71
2023/04/26 01:32:39;;;;;;;;;;;;;;;5.03;100.00;95830.00;5107623;28;19962;-71
2023/04/26 01:35:06;;;;;;;;;;;;;;;5.09;100.00;95836.63;5100687;28;19945;-71
2023/04/26 01:37:32;;;;;;;;;;;;;;;5.16;100.00;95834.66;5104883;28;19923;-71
2023/04/26 01:40:00;;;;;;;;;;;;;;;5.19;100.00;95829.38;5108338;28;19923;-71
2023/04/26 01:42:26;;;;;;;;;;;;;;;5.20;100.00;95819.03;5095371;28;19923;-71
2023/04/26 01:44:52;;;;;;;;;;;;;;;5.18;100.00;95822.56;5104321;28;19924;-71
2023/04/26 01:47:19;;;;;;;;;;;;;;;5.07;100.00;95818.69;5100705;28;20389;-71
2023/04/26 01:49:45;;;;;;;;;;;;;;;4.83;100.00;95825.66;5104082;28;20327;-71
2023/04/26 01:52:11;;;;;;;;;;;;;;;4.66;100.00;95829.75;5095942;28;20018;-71
2023/04/26 01:54:37;;;;;;;;;;;;;;;4.60;100.00;95829.13;5102913;28;20382;-71
2023/04/26 01:57:05;;;;;;;;;;;;;;;4.48;100.00;95833.84;5104053;28;20439;-71
2023/04/26 01:59:31;;;;;;;;;;;;;;;4.24;100.00;95833.06;5103603;28;19928;-72
2023/04/26 02:01:58;;;;;;;;;;;;;;;4.05;100.00;95827.78;5102452;28;19931;-71
2023/04/26 02:04:25;;;;;;;;;;;;;;;3.99;100.00;95828.00;5093880;28;19924;-71
2023/04/26 02:06:51;;;;;;;;;;;;;;;3.90;100.00;95836.03;5107809;28;19927;-71
2023/04/26 02:09:18;;;;;;;;;;;;;;;3.96;100.00;95830.66;5101432;28;19931;-71
2023/04/26 02:11:44;;;;;;;;;;;;;;;3.88;100.00;95836.88;5103545;28;19932;-71
2023/04/26 02:14:12;;;;;;;;;;;;;;;3.88;100.00;95842.00;5100921;28;19928;-71
2023/04/26 02:16:39;;;;;;;;;;;;;;;4.00;100.00;95840.72;5106047;28;20402;-71
2023/04/26 02:19:09;;;;;;;;;;;;;;;4.17;100.00;95831.63;5102157;28;20390;-71
2023/04/26 02:21:50;;;;;;;;;;;;;;;4.29;100.00;95833.72;5101812;28;20378;-70
2023/04/26 02:24:16;;;;;;;;;;;;;;;4.35;100.00;95842.03;5096182;28;19924;-71
2023/04/26 02:26:42;;;;;;;;;;;;;;;4.23;100.00;95837.34;5102740;28;19932;-71
2023/04/26 02:29:08;;;;;;;;;;;;;;;4.31;100.00;95835.34;5100211;28;19968;-71
2023/04/26 02:31:36;;;;;;;;;;;;;;;4.46;100.00;95838.22;5100349;28;19934;-71
2023/04/26 02:34:02;;;;;;;;;;;;;;;4.45;100.00;95845.09;5096953;28;19924;-71
2023/04/26 02:36:28;;;;;;;;;;;;;;;4.33;100.00;95848.09;5089491;28;20563;-71
2023/04/26 02:38:55;;;;;;;;;;;;;;;4.27;100.00;95841.47;5091060;28;19958;-71
2023/04/26 02:41:22;;;;;;;;;;;;;;;4.18;100.00;95844.38;5099553;28;20506;-71
2023/04/26 02:43:48;;;;;;;;;;;;;;;4.08;100.00;95846.44;5103035;28;19930;-71
2023/04/26 02:46:14;;;;;;;;;;;;;;;3.88;100.00;95844.56;5098521;28;19928;-71
2023/04/26 02:48:42;;;;;;;;;;;;;;;3.96;100.00;95841.72;5099777;28;19978;-71
2023/04/26 02:51:08;;;;;;;;;;;;;;;3.87;100.00;95837.78;5094387;28;19927;-71
2023/04/26 02:53:35;;;;;;;;;;;;;;;3.91;100.00;95835.94;5100104;28;19934;-71
2023/04/26 02:56:01;;;;;;;;;;;;;;;4.12;100.00;95839.47;5099283;28;19924;-71
2023/04/26 02:58:27;;;;;;;;;;;;;;;4.01;100.00;95839.03;5096634;28;19932;-71
2023/04/26 03:00:53;;;;;;;;;;;;;;;3.99;100.00;95843.34;5092984;28;19924;-71
2023/04/26 03:03:21;;;;;;;;;;;;;;;3.92;100.00;95836.78;5093161;28;19983;-71
2023/04/26 03:05:49;;;;;;;;;;;;;;;3.90;100.00;95839.41;5095805;28;19959;-71
2023/04/26 03:08:15;;;;;;;;;;;;;;;3.93;100.00;95839.31;5084144;28;19935;-70
2023/04/26 03:10:41;;;;;;;;;;;;;;;3.99;100.00;95846.75;5094040;28;19924;-71
2023/04/26 03:13:07;;;;;;;;;;;;;;;4.06;100.00;95840.53;5091366;28;20053;-71
2023/04/26 03:15:34;;;;;;;;;;;;;;;3.88;100.00;95843.75;5090587;28;19932;-71
2023/04/26 03:18:00;;;;;;;;;;;;;;;3.97;100.00;95846.00;5101257;28;19927;-71
2023/04/26 03:20:27;;;;;;;;;;;;;;;3.97;100.00;95843.44;5099536;28;19932;-71
2023/04/26 03:22:54;;;;;;;;;;;;;;;3.98;100.00;95836.56;5088402;28;19977;-71
2023/04/26 03:25:20;;;;;;;;;;;;;;;4.07;100.00;95838.78;5095536;28;19925;-71
2023/04/26 03:27:47;;;;;;;;;;;;;;;4.11;100.00;95838.63;5100910;28;19923;-71
2023/04/26 03:30:13;;;;;;;;;;;;;;;4.07;100.00;95833.66;5095928;28;19986;-71
2023/04/26 03:32:40;;;;;;;;;;;;;;;4.00;100.00;95837.34;5101185;28;19951;-71
2023/04/26 03:35:06;;;;;;;;;;;;;;;4.02;100.00;95835.56;5092702;28;19932;-71
2023/04/26 03:37:32;;;;;;;;;;;;;;;3.99;100.00;95836.50;5105960;28;19981;-71
2023/04/26 03:40:00;;;;;;;;;;;;;;;4.04;100.00;95828.66;5105636;28;19924;-71
2023/04/26 03:42:26;;;;;;;;;;;;;;;3.91;100.00;95835.13;5100639;28;19924;-71
2023/04/26 03:44:52;;;;;;;;;;;;;;;3.96;100.00;95834.03;5103838;28;19927;-71
2023/04/26 03:47:19;;;;;;;;;;;;;;;3.91;100.00;95833.38;5098701;28;19970;-70
2023/04/26 03:49:45;;;;;;;;;;;;;;;3.90;100.00;95836.03;5102487;28;19932;-71
2023/04/26 03:52:11;;;;;;;;;;;;;;;3.90;100.00;95830.91;5101150;28;19923;-71
2023/04/26 03:54:37;;;;;;;;;;;;;;;3.68;100.00;95831.63;5103242;28;19986;-71
2023/04/26 03:57:05;;;;;;;;;;;;;;;3.55;100.00;95844.00;5097624;28;19927;-71
2023/04/26 03:59:32;;;;;;;;;;;;;;;3.53;100.00;95839.84;5102317;28;19924;-71
2023/04/26 04:01:58;;;;;;;;;;;;;;;3.49;100.00;95838.28;5100560;28;19931;-71
2023/04/26 04:04:24;;;;;;;;;;;;;;;3.48;100.00;95837.44;5096572;28;19925;-71
2023/04/26 04:06:50;;;;;;;;;;;;;;;3.53;100.00;95835.56;5098472;28;20002;-71
2023/04/26 04:09:17;;;;;;;;;;;;;;;3.70;100.00;95836.69;5097678;28;19924;-71
2023/04/26 04:11:43;;;;;;;;;;;;;;;3.78;100.00;95837.25;5107509;28;19962;-71
2023/04/26 04:14:10;;;;;;;;;;;;;;;3.83;100.00;95835.38;5097353;28;19969;-71
2023/04/26 04:16:37;;;;;;;;;;;;;;;3.83;100.00;95836.22;5105457;28;20321;-70
2023/04/26 04:19:04;;;;;;;;;;;;;;;3.86;100.00;95840.41;5096667;28;19928;-71
2023/04/26 04:21:30;;;;;;;;;;;;;;;3.80;100.00;95835.50;5102325;28;19935;-71
2023/04/26 04:23:57;;;;;;;;;;;;;;;3.87;100.00;95831.81;5105515;28;19924;-71
2023/04/26 04:26:23;;;;;;;;;;;;;;;3.87;100.00;95837.78;5107416;28;20022;-71
2023/04/26 04:28:50;;;;;;;;;;;;;;;3.93;100.00;95846.13;5107046;28;20009;-71
2023/04/26 04:31:18;;;;;;;;;;;;;;;3.87;100.00;95844.63;5092656;28;19924;-71
2023/04/26 04:33:44;;;;;;;;;;;;;;;3.67;100.00;95841.91;5110623;28;19931;-71
2023/04/26 04:36:10;;;;;;;;;;;;;;;3.67;100.00;95842.78;5105653;28;19945;-71
2023/04/26 04:38:37;;;;;;;;;;;;;;;3.80;100.00;95846.56;5097760;28;19924;-71
2023/04/26 04:41:03;;;;;;;;;;;;;;;3.88;100.00;95854.81;5101378;28;19928;-71
2023/04/26 04:43:29;;;;;;;;;;;;;;;3.98;100.00;95855.34;5098244;28;19932;-71
2023/04/26 04:45:57;;;;;;;;;;;;;;;3.96;100.00;95851.97;5100747;28;19924;-71
2023/04/26 04:48:24;;;;;;;;;;;;;;;3.90;100.00;95849.66;5105102;28;19927;-71
2023/04/26 04:50:51;;;;;;;;;;;;;;;3.87;100.00;95857.44;5097836;28;20347;-71
2023/04/26 04:53:18;;;;;;;;;;;;;;;3.80;100.00;95854.25;5106682;28;19931;-71
2023/04/26 04:55:44;;;;;;;;;;;;;;;3.68;100.00;95848.75;5102407;28;19923;-71
2023/04/26 04:58:11;;;;;;;;;;;;;;;3.63;100.00;95849.72;5096431;28;20416;-71
2023/04/26 05:00:37;;;;;;;;;;;;;;;3.80;100.00;95850.88;5106487;28;20298;-71
2023/04/26 05:03:04;;;;;;;;;;;;;;;3.88;100.00;95861.69;5098954;28;20388;-71
2023/04/26 05:05:31;;;;;;;;;;;;;;;3.95;100.00;95864.88;5107002;28;19980;-71
2023/04/26 05:07:58;;;;;;;;;;;;;;;3.97;100.00;95866.50;5086137;28;19970;-72
2023/04/26 05:10:24;;;;;;;;;;;;;;;4.03;100.00;95868.81;5097166;28;19924;-71
2023/04/26 05:12:50;;;;;;;;;;;;;;;4.11;100.00;95866.81;5102500;28;19931;-70
2023/04/26 05:15:17;;;;;;;;;;;;;;;3.95;100.00;95873.38;5101012;28;19970;-70
2023/04/26 05:17:43;;;;;;;;;;;;;;;3.75;100.00;95863.84;5096323;28;19928;-70
2023/04/26 05:20:10;;;;;;;;;;;;;;;3.75;100.00;95873.25;5098864;28;19924;-70
2023/04/26 05:22:38;;;;;;;;;;;;;;;3.83;100.00;95876.38;5101537;28;19927;-70
2023/04/26 05:25:06;;;;;;;;;;;;;;;3.98;100.00;95878.41;5098943;28;19928;-70
2023/04/26 05:27:33;;;;;;;;;;;;;;;4.18;100.00;95879.41;5105396;28;19928;-68
2023/04/26 05:30:00;;;;;;;;;;;;;;;4.32;100.00;95885.72;5098680;28;19924;-70
2023/04/26 05:32:26;;;;;;;;;;;;;;;4.42;100.00;95880.28;5101918;28;20316;-70
2023/04/26 05:34:52;;;;;;;;;;;;;;;4.56;100.00;95889.13;5087889;28;19924;-71
2023/04/26 05:37:19;;;;;;;;;;;;;;;4.44;100.00;95894.69;5091083;28;19969;-72
2023/04/26 05:39:46;;;;;;;;;;;;;;;4.42;100.00;95893.94;5104656;28;19931;-71
2023/04/26 05:42:13;;;;;;;;;;;;;;;4.41;100.00;95896.53;5098564;28;19924;-72
2023/04/26 05:44:39;;;;;;;;;;;;;;;4.47;100.00;95907.41;5105239;28;19924;-71
2023/04/26 05:47:05;;;;;;;;;;;;;;;4.54;100.00;95903.72;5088007;28;19928;-71
2023/04/26 05:49:32;;;;;;;;;;;;;;;4.55;100.00;95899.44;5096366;28;19970;-70
2023/04/26 05:51:58;;;;;;;;;;;;;;;4.68;100.00;95897.25;5098149;28;19977;-71
2023/04/26 05:54:25;;;;;;;;;;;;;;;4.71;100.00;95897.13;5087354;28;19932;-70
2023/04/26 05:56:52;;;;;;;;;;;;;;;4.72;100.00;95902.22;5078332;28;19978;-70
2023/04/26 05:59:19;;;;;;;;;;;;;;;4.76;100.00;95896.06;5076055;28;19978;-70
2023/04/26 06:01:45;;;;;;;;;;;;;;;4.73;100.00;95900.47;5081224;28;19940;-70
2023/04/26 06:04:11;;;;;;;;;;;;;;;4.74;100.00;95902.13;5078626;28;20294;-72
2023/04/26 06:06:38;;;;;;;;;;;;;;;4.75;100.00;95907.22;5075426;28;19935;-72
2023/04/26 06:09:04;;;;;;;;;;;;;;;4.89;100.00;95905.84;5074563;28;20631;-72
2023/04/26 06:11:30;;;;;;;;;;;;;;;4.95;100.00;95906.47;5081658;28;19928;-72
2023/04/26 06:13:58;;;;;;;;;;;;;;;5.02;100.00;95907.06;5079769;28;20018;-72
2023/04/26 06:16:24;;;;;;;;;;;;;;;5.06;100.00;95909.44;5071896;28;20413;-74
2023/04/26 06:18:51;;;;;;;;;;;;;;;5.13;100.00;95915.19;5071943;28;19924;-73
2023/04/26 06:21:17;;;;;;;;;;;;;;;5.40;100.00;95915.00;5076660;28;20408;-73
2023/04/26 06:23:43;;;;;;;;;;;;;;;5.49;100.00;95915.47;5079842;28;19947;-71
2023/04/26 06:26:09;;;;;;;;;;;;;;;5.69;100.00;95918.94;5072950;28;19933;-71
2023/04/26 06:28:36;;;;;;;;;;;;;;;5.60;100.00;95917.59;5076808;28;19932;-72
2023/04/26 06:31:03;;;;;;;;;;;;;;;5.56;100.00;95922.03;5070394;28;19925;-73
2023/04/26 06:33:29;;;;;;;;;;;;;;;5.84;100.00;95920.88;5081239;28;19955;-73
2023/04/26 06:35:56;;;;;;;;;;;;;;;5.91;100.00;95924.03;5070248;28;19985;-73
2023/04/26 06:38:22;;;;;;;;;;;;;;;5.98;100.00;95917.78;5077754;28;19931;-72
2023/04/26 06:40:48;;;;;;;;;;;;;;;6.36;100.00;95912.72;5071611;28;19970;-72
2023/04/26 06:43:14;;;;;;;;;;;;;;;6.38;100.00;95924.59;5078552;28;20373;-74
2023/04/26 06:45:41;;;;;;;;;;;;;;;6.44;100.00;95919.19;5070304;28;19924;-73
2023/04/26 06:48:08;;;;;;;;;;;;;;;6.91;100.00;95917.94;5077586;28;19924;-74
2023/04/26 06:50:37;;;;;;;;;;;;;;;7.16;100.00;95917.66;5072151;28;19990;-74
2023/04/26 06:53:04;;;;;;;;;;;;;;;7.59;100.00;95920.75;5077529;28;20015;-74
2023/04/26 06:55:30;;;;;;;;;;;;;;;7.68;100.00;95910.00;5064021;28;19975;-73
2023/04/26 06:57:56;;;;;;;;;;;;;;;7.86;100.00;95906.53;5075620;28;19977;-72
2023/04/26 07:00:22;;;;;;;;;;;;;;;8.08;100.00;95905.41;5070593;28;19924;-71
2023/04/26 07:02:49;;;;;;;;;;;;;;;8.18;100.00;95906.63;5083709;28;19963;-71
2023/04/26 07:05:16;;;;;;;;;;;;;;;8.20;100.00;95900.47;5077597;28;20298;-72
2023/04/26 07:07:43;;;;;;;;;;;;;;;8.32;100.00;95908.50;5080346;28;19925;-72
2023/04/26 07:10:09;;;;;;;;;;;;;;;8.42;100.00;95907.16;5078053;28;19928;-72
2023/04/26 07:12:35;;;;;;;;;;;;;;;8.53;100.00;95907.44;5081502;28;19928;-72
2023/04/26 07:15:03;;;;;;;;;;;;;;;8.60;100.00;95900.16;5078944;28;19928;-72
2023/04/26 07:17:29;;;;;;;;;;;;;;;8.66;100.00;95907.59;5072243;28;20354;-72
2023/04/26 07:19:55;;;;;;;;;;;;;;;8.45;100.00;95897.50;5069603;28;19932;-73
2023/04/26 07:22:23;;;;;;;;;;;;;;;8.29;100.00;95896.59;5075818;28;19928;-73
2023/04/26 07:24:49;;;;;;;;;;;;;;;8.37;100.00;95896.19;5075444;28;19928;-73
2023/04/26 07:27:16;;;;;;;;;;;;;;;8.16;100.00;95895.56;5072410;28;19982;-72
2023/04/26 07:29:42;;;;;;;;;;;;;;;8.06;100.00;95891.78;5068907;28;20019;-73
2023/04/26 07:32:08;;;;;;;;;;;;;;;7.88;100.00;95884.06;5071129;28;19924;-73
2023/04/26 07:34:35;;;;;;;;;;;;;;;7.96;100.00;95888.81;5073723;28;19933;-71
2023/04/26 07:37:01;;;;;;;;;;;;;;;8.12;100.00;95881.13;5073554;28;19969;-72
2023/04/26 07:39:29;;;;;;;;;;;;;;;8.15;100.00;95888.72;5080253;28;20007;-71
2023/04/26 07:41:55;;;;;;;;;;;;;;;8.10;100.00;95888.13;5088330;28;19940;-72
2023/04/26 07:44:21;;;;;;;;;;;;;;;8.46;100.00;95888.00;5089567;28;20340;-71
2023/04/26 07:46:47;;;;;;;;;;;;;;;8.92;100.00;95894.13;5076036;28;20026;-72
2023/04/26 07:49:14;;;;;;;;;;;;;;;8.69;93.82;95890.19;5078153;28;19924;-72
2023/04/26 07:51:44;;;;;;;;;;;;;;;8.88;100.00;95892.63;5079332;28;19928;-72
2023/04/26 07:54:10;;;;;;;;;;;;;;;8.77;95.95;95891.53;5081032;28;19974;-73
2023/04/26 07:56:38;;;;;;;;;;;;;;;8.67;90.06;95898.94;5080293;28;19925;-73
2023/04/26 07:59:04;;;;;;;;;;;;;;;8.79;93.87;95897.44;5070841;28;19943;-73
2023/04/26 08:01:30;;;;;;;;;;;;;;;8.93;93.71;95905.28;5073226;28;19929;-73
2023/04/26 08:03:57;;;;;;;;;;;;;;;8.78;94.74;95906.94;5070765;28;19970;-73
2023/04/26 08:06:23;;;;;;;;;;;;;;;8.83;86.39;95904.97;5070041;28;19931;-74
2023/04/26 08:08:51;;;;;;;;;;;;;;;8.81;91.12;95905.94;5080004;28;19931;-74
2023/04/26 08:11:18;;;;;;;;;;;;;;;8.65;84.86;95906.78;5074945;28;20345;-74
2023/04/26 08:13:46;;;;;;;;;;;;;;;8.57;89.32;95906.34;5084112;28;19978;-75
2023/04/26 08:16:12;;;;;;;;;;;;;;;8.46;87.46;95906.91;5078112;28;19993;-75
2023/04/26 08:18:39;;;;;;;;;;;;;;;8.36;86.16;95910.84;5077228;28;19950;-75
2023/04/26 08:21:05;;;;;;;;;;;;;;;8.21;89.34;95906.47;5081663;28;19928;-73
2023/04/26 08:23:33;;;;;;;;;;;;;;;8.13;88.87;95906.03;5079861;28;19931;-73
2023/04/26 08:25:59;;;;;;;;;;;;;;;8.05;87.38;95913.34;5083077;28;19928;-73
2023/04/26 08:28:26;;;;;;;;;;;;;;;8.17;90.38;95908.38;5079384;28;19932;-73
2023/04/26 08:30:54;;;;;;;;;;;;;;;8.13;89.14;95908.63;5083366;28;19978;-74
2023/04/26 08:33:20;;;;;;;;;;;;;;;8.31;85.29;95917.16;5082410;28;20295;-72
2023/04/26 08:35:46;;;;;;;;;;;;;;;8.16;80.90;95917.03;5077470;28;19973;-73
2023/04/26 08:38:12;;;;;;;;;;;;;;;8.37;84.69;95922.84;5080287;28;20440;-73
2023/04/26 08:40:41;;;;;;;;;;;;;;;8.32;82.41;95917.06;5085339;28;20344;-73
2023/04/26 08:43:08;;;;;;;;;;;;;;;8.22;80.27;95914.13;5077239;28;19925;-74
2023/04/26 08:45:35;;;;;;;;;;;;;;;8.18;81.61;95916.94;5079338;28;19929;-75
2023/04/26 08:48:04;;;;;;;;;;;;;;;7.96;82.79;95919.78;5079601;28;19924;-75
2023/04/26 08:50:32;;;;;;;;;;;;;;;7.90;82.86;95909.78;5081340;28;19924;-75
2023/04/26 08:52:58;;;;;;;;;;;;;;;8.32;85.40;95914.50;5079748;28;19924;-75
2023/04/26 08:55:25;;;;;;;;;;;;;;;8.42;79.58;95913.16;5068182;28;20344;-73
2023/04/26 08:57:51;;;;;;;;;;;;;;;8.80;79.91;95904.28;5070522;28;19978;-73
2023/04/26 09:00:18;;;;;;;;;;;;;;;8.89;82.70;95917.53;5071300;28;20344;-73
2023/04/26 09:02:47;;;;;;;;;;;;;;;9.04;78.97;95915.88;5071837;28;19932;-73
2023/04/26 09:05:15;;;;;;;;;;;;;;;8.82;78.59;95908.44;5071015;28;19931;-73
2023/04/26 09:07:42;;;;;;;;;;;;;;;8.33;77.47;95911.00;5070351;28;19978;-74
2023/04/26 09:10:10;;;;;;;;;;;;;;;8.06;80.26;95902.09;5063941;28;20426;-73
2023/04/26 09:12:36;;;;;;;;;;;;;;;8.05;83.22;95898.69;5080620;28;19953;-74
2023/04/26 09:15:03;;;;;;;;;;;;;;;8.20;86.31;95897.06;5081878;28;19928;-72
2023/04/26 09:17:30;;;;;;;;;;;;;;;8.62;87.34;95895.78;5072783;28;20660;-72
2023/04/26 09:19:57;;;;;;;;;;;;;;;9.03;83.96;95896.13;5073597;28;19929;-72
2023/04/26 09:22:32;;;;;;;;;;;;;;;8.67;79.22;95894.59;5071885;28;20310;-72
2023/04/26 09:24:58;;;;;;;;;;;;;;;8.77;78.60;95897.53;5072706;28;19924;-72
2023/04/26 09:27:31;;;;;;;;;;;;;;;8.80;80.60;95893.97;5079444;28;20460;-72
2023/04/26 09:29:59;;;;;;;;;;;;;;;8.75;78.63;95891.63;5067006;28;19932;-73
2023/04/26 09:32:26;;;;;;;;;;;;;;;8.66;80.86;95887.78;5076281;28;19928;-73
2023/04/26 09:34:52;;;;;;;;;;;;;;;8.47;77.54;95893.06;5066006;28;20018;-75
2023/04/26 09:37:18;;;;;;;;;;;;;;;8.44;76.76;95890.66;5065844;28;20329;-73
2023/04/26 09:39:46;;;;;;;;;;;;;;;8.69;75.68;95891.94;5068709;28;20080;-73
2023/04/26 09:42:16;;;;;;;;;;;;;;;8.71;76.17;95888.38;5071106;28;19931;-73
2023/04/26 09:44:42;;;;;;;;;;;;;;;8.79;76.99;95885.38;5071248;28;19924;-74
2023/04/26 09:47:09;;;;;;;;;;;;;;;8.87;73.39;95887.56;5065978;28;19924;-73
2023/04/26 09:49:44;;;;;;;;;;;;;;;9.21;80.13;95889.13;5069551;28;19928;-73
2023/04/26 09:52:10;;;;;;;;;;;;;;;9.21;76.65;95896.88;5076663;28;19928;-74
2023/04/26 09:54:41;;;;;;;;;;;;;;;9.64;75.17;95884.94;5079727;28;19929;-73
2023/04/26 09:57:08;;;;;;;;;;;;;;;10.01;79.46;95884.56;5078575;28;20197;-74
2023/04/26 09:59:45;;;;;;;;;;;;;;;10.49;77.52;95880.81;5079710;28;19935;-74
2023/04/26 10:02:15;;;;;;;;;;;;;;;10.41;74.11;95880.47;5070840;28;19931;-73
2023/04/26 10:04:44;;;;;;;;;;;;;;;9.60;69.25;95869.69;5079541;28;20007;-73
2023/04/26 10:07:10;;;;;;;;;;;;;;;9.99;77.51;95865.72;5082240;28;20015;-73
2023/04/26 10:09:37;;;;;;;;;;;;;;;10.09;69.48;95875.44;5078894;28;19929;-74
2023/04/26 10:12:04;;;;;;;;;;;;;;;9.84;75.96;95870.88;5081478;28;20564;-73
2023/04/26 10:14:34;;;;;;;;;;;;;;;9.83;74.78;95863.19;5088133;28;19931;-74
2023/04/26 10:17:01;;;;;;;;;;;;;;;9.75;77.47;95866.22;5085499;28;20305;-74
2023/04/26 10:19:29;;;;;;;;;;;;;;;9.67;71.91;95873.59;5082930;28;20405;-73
2023/04/26 10:21:58;;;;;;;;;;;;;;;9.10;68.04;95879.38;5081447;28;19924;-74
2023/04/26 10:24:26;;;;;;;;;;;;;;;8.52;73.06;95869.59;5084874;28;19928;-73
2023/04/26 10:26:53;;;;;;;;;;;;;;;8.40;72.36;95873.66;5081697;28;19966;-74
2023/04/26 10:29:19;;;;;;;;;;;;;;;8.40;75.28;95868.50;5080610;28;20023;-74
2023/04/26 10:32:04;;;;;;;;;;;;;;;8.34;73.57;95866.19;5084600;28;19932;-74
2023/04/26 10:34:33;;;;;;;;;;;;;;;8.30;74.26;95866.44;5082048;28;19928;-74
2023/04/26 10:37:12;;;;;;;;;;;;;;;8.53;70.48;95873.88;5082214;28;19970;-73
2023/04/26 10:39:38;;;;;;;;;;;;;;;8.63;69.57;95876.78;5082118;28;19925;-73
2023/04/26 10:42:21;;;;;;;;;;;;;;;8.80;71.74;95868.97;5063606;28;20015;-73
2023/04/26 10:44:48;;;;;;;;;;;;;;;8.91;69.53;95864.06;5071519;28;19928;-73
2023/04/26 10:47:26;;;;;;;;;;;;;;;8.76;68.00;95864.06;5078717;28;20292;-73
2023/04/26 10:50:01;;;;;;;;;;;;;;;8.79;69.88;95861.28;5070338;28;19924;-73
2023/04/26 10:52:27;;;;;;;;;;;;;;;8.78;67.71;95872.53;5078910;28;19932;-73
2023/04/26 10:54:54;;;;;;;;;;;;;;;8.82;67.28;95866.28;5076364;28;19935;-73
2023/04/26 10:57:21;;;;;;;;;;;;;;;9.05;67.63;95844.34;5069451;28;19932;-74
2023/04/26 11:00:11;;;;;;;;;;;;;;;9.33;68.32;95854.00;5071317;28;20286;-74
2023/04/26 11:02:44;;;;;;;;;;;;;;;9.91;76.88;95855.81;5070681;28;19973;-74
2023/04/26 11:05:32;;;;;;;;;;;;;;;10.04;68.17;95859.34;5058928;28;22339;-74
2023/04/26 11:08:03;;;;;;;;;;;;;;;10.20;70.87;95854.09;5067137;28;19936;-74
2023/04/26 11:10:30;;;;;;;;;;;;;;;10.32;63.87;95852.56;5068581;28;19928;-74
2023/04/26 11:13:00;;;;;;;;;;;;;;;9.73;63.85;95852.53;5070691;28;20387;-73
2023/04/26 11:15:26;;;;;;;;;;;;;;;9.35;64.41;95847.81;5058799;28;19925;-73
2023/04/26 11:17:52;;;;;;;;;;;;;;;9.55;66.23;95838.09;5069788;28;20318;-74
2023/04/26 11:20:20;;;;;;;;;;;;;;;9.77;68.66;95841.09;5065847;28;19928;-74
2023/04/26 11:22:46;;;;;;;;;;;;;;;9.96;70.34;95827.91;5079320;28;19932;-74
2023/04/26 11:25:13;;;;;;;;;;;;;;;10.15;71.47;95835.41;5063219;28;19928;-74
2023/04/26 11:27:42;;;;;;;;;;;;;;;10.13;64.73;95825.16;5060203;28;20394;-75
2023/04/26 11:30:09;;;;;;;;;;;;;;;10.35;66.83;95816.97;5066134;28;19929;-74
2023/04/26 11:32:35;;;;;;;;;;;;;;;10.60;68.30;95813.66;5063472;28;19929;-74
2023/04/26 11:35:02;;;;;;;;;;;;;;;10.52;64.47;95815.91;5072466;28;19928;-75
2023/04/26 11:37:30;;;;;;;;;;;;;;;10.70;66.16;95803.56;5060866;28;19924;-75
2023/04/26 11:39:57;;;;;;;;;;;;;;;10.66;69.10;95802.94;5069492;28;19924;-74
2023/04/26 11:42:24;;;;;;;;;;;;;;;10.87;72.76;95805.94;5071228;28;19993;-75
2023/04/26 11:44:51;;;;;;;;;;;;;;;10.84;73.05;95797.53;5068520;28;19924;-73
2023/04/26 11:47:18;;;;;;;;;;;;;;;10.81;69.19;95789.94;5070295;28;19955;-75
2023/04/26 11:49:46;;;;;;;;;;;;;;;10.98;71.58;95794.06;5070008;28;19936;-74
2023/04/26 11:52:12;;;;;;;;;;;;;;;11.02;70.17;95792.94;5079787;28;19924;-76
2023/04/26 11:54:41;;;;;;;;;;;;;;;11.10;66.10;95794.09;5078199;28;19928;-75
2023/04/26 11:57:13;;;;;;;;;;;;;;;10.99;70.56;95801.75;5086458;28;19930;-75
2023/04/26 11:59:39;;;;;;;;;;;;;;;10.76;64.37;95798.03;5084483;28;19928;-75
2023/04/26 12:02:07;;;;;;;;;;;;;;;10.82;71.49;95796.78;5082716;28;20064;-74
2023/04/26 12:04:33;;;;;;;;;;;;;;;10.86;75.33;95798.25;5072663;28;19964;-75
2023/04/26 12:07:00;;;;;;;;;;;;;;;10.83;71.01;95790.69;5082060;28;20015;-75
2023/04/26 12:09:28;;;;;;;;;;;;;;;10.79;63.94;95786.63;5079689;28;20405;-73
2023/04/26 12:11:58;;;;;;;;;;;;;;;10.82;63.64;95789.00;5088099;28;20042;-73
2023/04/26 12:14:30;;;;;;;;;;;;;;;10.03;61.47;95793.00;5073065;28;19934;-73
2023/04/26 12:16:58;;;;;;;;;;;;;;;10.47;65.31;95791.25;5076883;28;19931;-73
2023/04/26 12:19:25;;;;;;;;;;;;;;;10.54;63.66;95789.94;5078646;28;20053;-73
2023/04/26 12:21:52;;;;;;;;;;;;;;;10.63;66.01;95791.94;5081206;28;19924;-72
2023/04/26 12:24:22;;;;;;;;;;;;;;;10.82;66.81;95781.25;5078149;28;19946;-73
2023/04/26 12:26:48;;;;;;;;;;;;;;;10.67;59.54;95783.03;5078389;28;20352;-73
2023/04/26 12:29:15;;;;;;;;;;;;;;;10.67;61.58;95783.03;5080109;28;19928;-74
2023/04/26 12:31:42;;;;;;;;;;;;;;;11.09;72.90;95779.50;5081442;28;19932;-74
2023/04/26 12:34:08;;;;;;;;;;;;;;;11.09;66.31;95784.69;5079993;28;19940;-75
2023/04/26 12:36:35;;;;;;;;;;;;;;;11.02;63.54;95780.81;5084817;28;19954;-75
2023/04/26 12:39:04;;;;;;;;;;;;;;;11.25;62.97;95784.50;5074417;28;20644;-74
2023/04/26 12:41:30;;;;;;;;;;;;;;;11.29;63.36;95779.94;5075568;28;19938;-75
2023/04/26 12:43:56;;;;;;;;;;;;;;;11.28;59.45;95783.47;5086235;28;19978;-74
2023/04/26 12:46:24;;;;;;;;;;;;;;;11.52;62.54;95783.63;5078758;28;19925;-74
2023/04/26 12:48:51;;;;;;;;;;;;;;;11.56;63.93;95788.50;5087965;28;19975;-74
2023/04/26 12:51:17;;;;;;;;;;;;;;;11.41;62.05;95784.31;5078559;28;19932;-75